Breckenridge, TX (76424)

5:44 AM CST on February 01, 2015 (GMT -0600)
West Breckenridge | Change Station
CLOSE
Current Station
Personal Weather Station
Location: Breckenridge, TX
Elevation: 1263 ft
Nearby Weather Stations

Elev 1263 ft 32.75 °N, 98.93 °W | Updated 16 seconds ago

Overcast
Overcast
53.6 °F
Feels Like 53.6 °F
N
0.0
Wind Variable Wind from South
Gusts 3.0 mph

Today
High -- | Low -- °F
--% Chance of Precip.
Yesterday
High -- | Low -- °F
Precip. -- in
7:30 AM 6:08 PM
Waxing Gibbous, 94% visible
Pressure 29.85 in
Visibility 7.0 miles
Clouds Overcast 1600 ft
Dew Point 53 °F
Humidity 97%
Rainfall 0.00 in
Snow Depth Not available.
UV 0 out of 12
Pollen 6.20 out of 12
Air Quality Not available.
Flu Activity Not available.
METAR KBKD 011115Z AUTO 26003KT 7SM OVC016 12/12 A2985 RMK AO2 T01210120

More Conditions Fewer Conditions

Pressure 29.85 in
Visibility 7.0 miles
Clouds Overcast 1600 ft
Dew Point 53 °F
Humidity 97%
Rainfall 0.00 in
Snow Depth Not available.
UV 0 out of 12
Pollen 6.20 out of 12
Air Quality Not available.
Flu Activity Not available.
METAR KBKD 011115Z AUTO 26003KT 7SM OVC016 12/12 A2985 RMK AO2 T01210120

More Conditions Fewer Conditions

Nowcast | as of 5:27 am CST on February 1, 2015

Light to moderate rain showers will continue this morning across portions of north and central Texas. Rainfall amounts between one tenth and one quarter of an inch will be possible in some locations. Additional showers are expected to develop across portions of western North Texas as a cold front continues to approach the area. Otherwise...areas of drizzle and fog will continue across north and central Texas. Visibility in some areas may fall below 1 mile at times. Motorists are urged to exercise caution...slow down...and use low beam headlights if reduced visibility is encountered.

×

10-Day Weather Forecast

Almanac

Astronomy

Feb. 01, 2015 Rise Set
Actual Time
Civil Twilight
Nautical Twilight
Astronomical Twilight
Moon
Length of Visible Light
Length of Day
Tomorrow will be .
, % of the Moon is Illuminated

Today's Extremes

State Highs State Lows

Community

WunderPhotos

Upload Photos

1,792,346 photos uploaded!

WunderBlogs® & News

Nearby

Air Quality

  Air Quality AQ Index Pollutant
Not available.

Snow Depth

Station Depth Elevation

Earthquake Activity

City Distance Mag. Time & Date
Minimum magnitude displayed is 2.5.

Coastal Water Temperatures

Place Temperature

Nearby Weather Stations